createdAt,value
2018-08-06T00:00:41.656Z,101485.63
2018-08-06T00:03:12.165Z,101481.61
2018-08-06T00:05:42.505Z,101477.59
2018-08-06T00:08:12.971Z,101475.45
2018-08-06T00:10:43.135Z,101480.05
2018-08-06T00:13:13.403Z,101478.14
2018-08-06T00:15:43.577Z,101477.16
2018-08-06T00:18:13.845Z,101481.98
2018-08-06T00:20:44.044Z,101475.42
2018-08-06T00:23:14.288Z,101464.55
2018-08-06T00:25:44.409Z,101465.92
2018-08-06T00:28:14.552Z,101459.19
2018-08-06T00:30:44.643Z,101460.48
2018-08-06T00:33:14.772Z,101457.82
2018-08-06T00:35:44.955Z,101455.98
2018-08-06T00:38:15.185Z,101446.14
2018-08-06T00:40:45.333Z,101443.03
2018-08-06T00:43:15.553Z,101445.30
2018-08-06T00:45:45.645Z,101443.47
2018-08-06T00:48:15.866Z,101439.67
2018-08-06T00:50:45.973Z,101441.95
2018-08-06T00:53:16.131Z,101437.04
2018-08-06T00:55:46.216Z,101432.76
2018-08-06T00:58:16.481Z,101436.28
2018-08-06T01:00:46.595Z,101423.17
2018-08-06T01:03:16.737Z,101416.09
2018-08-06T01:05:46.897Z,101421.11
2018-08-06T01:08:17.113Z,101415.42
2018-08-06T01:10:47.232Z,101412.52
2018-08-06T01:13:17.449Z,101411.55
2018-08-06T01:15:47.708Z,101411.19
2018-08-06T01:18:17.880Z,101410.37
2018-08-06T01:20:48.053Z,101409.03
2018-08-06T01:23:18.174Z,101400.28
2018-08-06T01:25:48.433Z,101395.81
2018-08-06T01:28:18.637Z,101397.98
2018-08-06T01:30:48.821Z,101388.23
2018-08-06T01:33:19.146Z,101388.59
2018-08-06T01:35:49.381Z,101390.56
2018-08-06T01:38:19.602Z,101389.54
2018-08-06T01:40:49.696Z,101391.58
2018-08-06T01:43:19.869Z,101394.70
2018-08-06T01:45:50.045Z,101390.75
2018-08-06T01:48:20.206Z,101388.98
2018-08-06T01:50:50.330Z,101386.61
2018-08-06T01:53:20.539Z,101382.56
2018-08-06T01:55:50.939Z,101385.51
2018-08-06T01:58:21.191Z,101383.50
2018-08-06T02:00:51.423Z,101382.64
2018-08-06T02:03:21.639Z,101378.41
2018-08-06T02:05:51.755Z,101385.02
2018-08-06T02:08:21.960Z,101377.88
2018-08-06T02:10:52.157Z,101381.69
2018-08-06T02:13:22.319Z,101377.23
2018-08-06T02:15:52.571Z,101375.41
2018-08-06T02:18:22.785Z,101367.39
2018-08-06T02:20:52.988Z,101366.44
2018-08-06T02:23:23.194Z,101361.77
2018-08-06T02:25:53.520Z,101353.48
2018-08-06T02:28:23.682Z,101352.52
2018-08-06T02:30:53.898Z,101353.11
2018-08-06T02:33:24.135Z,101359.98
2018-08-06T02:35:54.328Z,101345.52
2018-08-06T02:38:24.552Z,101349.12
2018-08-06T02:40:54.782Z,101354.68
2018-08-06T02:43:25.136Z,101351.67
2018-08-06T02:45:55.404Z,101345.20
2018-08-06T02:48:25.689Z,101342.83
2018-08-06T02:50:55.867Z,101349.13
2018-08-06T02:53:26.007Z,101342.34
2018-08-06T02:55:56.228Z,101346.13
2018-08-06T02:58:26.544Z,101337.20
2018-08-06T03:00:56.631Z,101334.73
2018-08-06T03:03:26.824Z,101334.63
2018-08-06T03:05:57.016Z,101326.91
2018-08-06T03:08:27.247Z,101323.88
2018-08-06T03:10:57.350Z,101330.06
2018-08-06T03:13:27.518Z,101331.69
2018-08-06T03:15:57.927Z,101325.97
2018-08-06T03:18:28.139Z,101323.67
2018-08-06T03:20:58.330Z,101326.95
2018-08-06T03:23:28.495Z,101325.70
2018-08-06T03:25:58.846Z,101328.85
2018-08-06T03:28:29.032Z,101325.95
2018-08-06T03:30:59.195Z,101326.92
2018-08-06T03:33:29.416Z,101324.45
2018-08-06T03:35:59.584Z,101322.52
2018-08-06T03:38:29.824Z,101322.52
2018-08-06T03:41:00.011Z,101318.16
2018-08-06T03:43:30.233Z,101318.16
2018-08-06T03:46:00.462Z,101315.69
2018-08-06T03:48:30.715Z,101312.05
2018-08-06T03:51:00.854Z,101312.80
2018-08-06T03:53:31.413Z,101315.66
2018-08-06T03:56:01.570Z,101313.37
2018-08-06T03:58:31.892Z,101316.71
2018-08-06T04:01:01.960Z,101306.73
2018-08-06T04:03:32.123Z,101303.88
2018-08-06T04:06:02.239Z,101304.92
2018-08-06T04:08:32.427Z,101308.99
2018-08-06T04:11:02.623Z,101305.40
2018-08-06T04:13:32.825Z,101304.43
2018-08-06T04:16:03.084Z,101309.27
2018-08-06T04:18:33.479Z,101309.66
2018-08-06T04:21:03.681Z,101311.05
2018-08-06T04:23:33.889Z,101311.91
2018-08-06T04:26:04.045Z,101304.80
2018-08-06T04:28:34.188Z,101304.23
2018-08-06T04:31:04.351Z,101309.30
2018-08-06T04:33:34.602Z,101300.63
2018-08-06T04:36:04.743Z,101301.76
2018-08-06T04:38:34.981Z,101288.65
2018-08-06T04:41:05.072Z,101289.59
2018-08-06T04:43:35.243Z,101277.97
2018-08-06T04:46:05.676Z,101279.69
2018-08-06T04:48:35.367Z,101277.41
2018-08-06T04:51:05.510Z,101278.73
2018-08-06T04:53:35.792Z,101277.47
2018-08-06T04:56:06.037Z,101281.47
2018-08-06T04:58:36.203Z,101281.16
2018-08-06T05:01:06.441Z,101283.54
2018-08-06T05:03:36.692Z,101281.91
2018-08-06T05:06:06.964Z,101281.41
2018-08-06T05:08:37.145Z,101278.61
2018-08-06T05:11:07.471Z,101278.59
2018-08-06T05:13:37.715Z,101282.99
2018-08-06T05:16:08.036Z,101280.09
2018-08-06T05:18:38.212Z,101276.81
2018-08-06T05:21:08.412Z,101274.95
2018-08-06T05:23:55.185Z,101278.77
2018-08-06T05:26:26.439Z,101268.25
2018-08-06T05:28:56.690Z,101273.55
2018-08-06T05:31:28.117Z,101274.63
2018-08-06T05:33:59.326Z,101275.30
2018-08-06T05:36:29.591Z,101286.80
2018-08-06T05:38:59.774Z,101276.27
2018-08-06T05:41:29.945Z,101268.98
2018-08-06T05:44:00.159Z,101276.53
2018-08-06T05:46:30.300Z,101263.84
2018-08-06T05:49:00.536Z,101264.75
2018-08-06T05:51:30.761Z,101267.51
2018-08-06T05:54:01.051Z,101266.68
2018-08-06T05:56:31.255Z,101269.55
2018-08-06T05:59:01.436Z,101271.28
2018-08-06T06:01:31.689Z,101267.89
2018-08-06T06:04:01.920Z,101269.91
2018-08-06T06:06:32.054Z,101264.63
2018-08-06T06:09:02.294Z,101272.45
2018-08-06T06:11:32.422Z,101267.58
2018-08-06T06:14:02.576Z,101266.56
2018-08-06T06:16:32.781Z,101268.02
2018-08-06T06:19:02.960Z,101274.27
2018-08-06T06:21:33.253Z,101278.28
2018-08-06T06:24:03.560Z,101275.77
2018-08-06T06:26:33.731Z,101276.81
2018-08-06T06:29:04.045Z,101269.26
2018-08-06T06:31:34.226Z,101269.02
2018-08-06T06:34:04.641Z,101267.34
2018-08-06T06:36:34.773Z,101264.47
2018-08-06T06:39:07.560Z,101257.44
2018-08-06T06:41:38.492Z,101259.06
2018-08-06T06:44:09.257Z,101263.09
2018-08-06T06:46:40.184Z,101263.64
2018-08-06T06:49:10.984Z,101260.39
2018-08-06T06:51:41.425Z,101252.02
2018-08-06T06:54:14.485Z,101252.86
2018-08-06T06:56:45.188Z,101259.18
2018-08-06T06:59:15.367Z,101246.36
2018-08-06T07:01:45.495Z,101251.68
2018-08-06T07:04:15.764Z,101250.86
2018-08-06T07:06:45.914Z,101251.34
2018-08-06T07:09:16.009Z,101251.95
2018-08-06T07:11:46.129Z,101242.78
2018-08-06T07:14:16.503Z,101247.97
2018-08-06T07:16:46.668Z,101239.12
2018-08-06T07:19:16.966Z,101240.45
2018-08-06T07:21:47.201Z,101231.53
2018-08-06T07:24:17.477Z,101233.59
2018-08-06T07:26:47.671Z,101226.77
2018-08-06T07:29:17.927Z,101221.25
2018-08-06T07:31:48.244Z,101223.97
2018-08-06T07:34:18.529Z,101222.59
2018-08-06T07:36:48.336Z,101212.19
2018-08-06T07:39:18.658Z,101211.19
2018-08-06T07:41:48.961Z,101205.48
2018-08-06T07:44:19.343Z,101202.84
2018-08-06T07:46:49.551Z,101198.80
2018-08-06T07:49:20.015Z,101196.72
2018-08-06T07:51:50.242Z,101195.70
2018-08-06T07:54:20.617Z,101201.41
2018-08-06T07:56:50.846Z,101190.23
2018-08-06T07:59:21.016Z,101185.45
2018-08-06T08:01:51.212Z,101181.28
2018-08-06T08:04:21.536Z,101185.53
2018-08-06T08:06:51.712Z,101177.48
2018-08-06T08:09:21.945Z,101169.74
2018-08-06T08:11:52.453Z,101172.94
2018-08-06T08:14:22.700Z,101167.16
2018-08-06T08:16:52.873Z,101164.05
2018-08-06T08:19:23.311Z,101166.28
2018-08-06T08:21:53.520Z,101171.87
2018-08-06T08:24:23.717Z,101168.72
2018-08-06T08:26:53.883Z,101167.64
2018-08-06T08:29:24.073Z,101164.23
2018-08-06T08:31:54.233Z,101160.69
2018-08-06T08:34:24.457Z,101152.16
2018-08-06T08:36:54.655Z,101153.92
2018-08-06T08:39:24.849Z,101146.14
2018-08-06T08:41:55.107Z,101147.41
2018-08-06T08:44:25.235Z,101143.63
2018-08-06T08:46:55.364Z,101134.77
2018-08-06T08:49:25.540Z,101126.13
2018-08-06T08:51:55.733Z,101123.40
2018-08-06T08:54:25.934Z,101115.80
2018-08-06T08:56:56.110Z,101119.75
2018-08-06T08:59:26.277Z,101114.33
2018-08-06T09:01:56.432Z,101117.52
2018-08-06T09:04:26.657Z,101117.02
2018-08-06T09:06:56.821Z,101121.23
2018-08-06T09:09:26.926Z,101113.88
2018-08-06T09:11:57.157Z,101117.86
2018-08-06T09:14:27.314Z,101108.25
2018-08-06T09:16:57.477Z,101104.34
2018-08-06T09:19:27.746Z,101105.44
2018-08-06T09:21:57.847Z,101098.89
2018-08-06T09:27:44.739Z,101098.44
2018-08-06T09:30:18.260Z,101101.33
2018-08-06T09:32:49.627Z,101093.80
2018-08-06T09:35:20.396Z,101094.95
2018-08-06T09:37:50.857Z,101080.92
2018-08-06T09:40:22.157Z,101076.11
2018-08-06T09:42:52.789Z,101076.32
2018-08-06T09:45:23.530Z,101074.76
2018-08-06T09:47:54.733Z,101069.75
2018-08-06T09:50:24.946Z,101062.17
2018-08-06T09:52:56.591Z,101062.53
2018-08-06T09:55:28.548Z,101059.19
2018-08-06T09:57:58.742Z,101054.69
2018-08-06T10:00:33.982Z,101047.75
2018-08-06T10:03:04.231Z,101041.95
2018-08-06T10:05:34.480Z,101034.92
2018-08-06T10:08:04.732Z,101037.39
2018-08-06T10:10:34.943Z,101033.33
2018-08-06T10:13:05.168Z,101027.73
2018-08-06T10:15:35.387Z,101024.31
2018-08-06T10:18:05.664Z,101027.04
2018-08-06T10:20:35.879Z,101021.94
2018-08-06T10:23:05.595Z,101017.03
2018-08-06T10:25:35.842Z,101020.21
2018-08-06T10:28:06.006Z,101015.70
2018-08-06T10:30:36.207Z,101003.00
2018-08-06T10:33:06.394Z,101005.48
2018-08-06T10:35:36.551Z,100990.20
2018-08-06T10:38:06.706Z,100994.00
2018-08-06T10:40:36.899Z,100985.40
2018-08-06T10:43:07.107Z,100984.84
2018-08-06T10:45:37.217Z,100979.61
2018-08-06T10:48:07.315Z,100980.95
2018-08-06T10:50:37.485Z,100975.44
2018-08-06T10:53:07.798Z,100967.48
2018-08-06T10:55:37.992Z,100959.95
2018-08-06T10:58:08.227Z,100959.71
2018-08-06T11:00:38.394Z,100959.39
2018-08-06T11:03:08.692Z,100953.44
2018-08-06T11:05:38.956Z,100949.80
2018-08-06T11:08:09.175Z,100951.04
2018-08-06T11:10:39.434Z,100952.79
2018-08-06T11:13:09.574Z,100943.02
2018-08-06T11:15:39.711Z,100943.38
2018-08-06T11:18:09.829Z,100939.19
2018-08-06T11:20:39.914Z,100938.31
2018-08-06T11:23:10.015Z,100930.56
2018-08-06T11:25:40.253Z,100937.05
2018-08-06T11:28:10.436Z,100930.67
2018-08-06T11:30:40.541Z,100919.81
2018-08-06T11:33:10.689Z,100921.75
2018-08-06T11:35:40.977Z,100912.19
2018-08-06T11:38:11.100Z,100915.73
2018-08-06T11:40:41.255Z,100913.02
2018-08-06T11:43:11.030Z,100909.55
2018-08-06T11:45:41.173Z,100914.17
2018-08-06T11:48:11.228Z,100905.66
2018-08-06T11:50:41.373Z,100905.35
2018-08-06T11:53:11.464Z,100897.37
2018-08-06T11:55:41.762Z,100891.79
2018-08-06T11:58:11.938Z,100900.09
2018-08-06T12:00:45.153Z,100889.27
2018-08-06T12:03:15.253Z,100884.54
2018-08-06T12:05:45.364Z,100882.53
2018-08-06T12:08:15.491Z,100880.64
2018-08-06T12:10:45.668Z,100880.35
2018-08-06T12:13:15.718Z,100876.75
2018-08-06T12:15:45.945Z,100869.81
2018-08-06T12:18:15.949Z,100883.38
2018-08-06T12:20:46.071Z,100880.02
2018-08-06T12:23:16.155Z,100872.88
2018-08-06T12:25:46.331Z,100879.61
2018-08-06T12:28:16.393Z,100882.55
2018-08-06T12:30:46.592Z,100880.12
2018-08-06T12:33:16.636Z,100876.95
2018-08-06T12:35:46.870Z,100882.68
2018-08-06T12:38:16.971Z,100879.95
2018-08-06T12:40:47.095Z,100876.55
2018-08-06T12:43:17.271Z,100868.57
2018-08-06T12:45:47.405Z,100869.30
2018-08-06T12:48:17.562Z,100862.36
2018-08-06T12:50:47.707Z,100861.75
2018-08-06T12:53:17.756Z,100858.28
2018-08-06T12:55:47.991Z,100855.85
2018-08-06T12:58:18.067Z,100852.59
2018-08-06T13:00:48.195Z,100847.21
2018-08-06T13:03:18.265Z,100850.33
2018-08-06T13:05:48.404Z,100845.57
2018-08-06T13:08:18.554Z,100841.73
2018-08-06T13:10:48.734Z,100837.45
2018-08-06T13:13:18.850Z,100833.52
2018-08-06T13:15:48.997Z,100829.33
2018-08-06T13:18:19.166Z,100818.70
2018-08-06T13:20:49.309Z,100828.73
2018-08-06T13:23:18.983Z,100826.52
2018-08-06T13:25:49.068Z,100821.05
2018-08-06T13:28:19.240Z,100810.09
2018-08-06T13:30:49.382Z,100812.92
2018-08-06T13:33:19.473Z,100808.59
2018-08-06T13:35:49.573Z,100810.13
2018-08-06T13:38:19.674Z,100801.02
2018-08-06T13:40:49.834Z,100799.46
2018-08-06T13:43:20.061Z,100794.92
2018-08-06T13:45:50.218Z,100795.42
2018-08-06T13:48:20.334Z,100790.73
2018-08-06T13:50:50.430Z,100793.80
2018-08-06T13:53:20.599Z,100791.97
2018-08-06T13:55:50.723Z,100789.20
2018-08-06T13:58:20.793Z,100780.63
2018-08-06T14:00:50.993Z,100775.78
2018-08-06T14:03:21.163Z,100772.13
2018-08-06T14:05:51.333Z,100777.22
2018-08-06T14:08:21.448Z,100778.17
2018-08-06T14:10:51.590Z,100776.75
2018-08-06T14:13:21.636Z,100768.95
2018-08-06T14:15:51.843Z,100765.93
2018-08-06T14:18:21.990Z,100761.06
2018-08-06T14:20:52.121Z,100762.05
2018-08-06T14:23:22.254Z,100760.23
2018-08-06T14:25:52.397Z,100755.56
2018-08-06T14:28:22.542Z,100749.17
2018-08-06T14:30:52.703Z,100751.80
2018-08-06T14:33:22.850Z,100743.94
2018-08-06T14:35:52.924Z,100751.61
2018-08-06T14:38:23.016Z,100742.97
2018-08-06T14:40:53.183Z,100737.73
2018-08-06T14:43:23.244Z,100737.50
2018-08-06T14:45:53.350Z,100735.13
2018-08-06T14:48:23.433Z,100737.33
2018-08-06T14:50:53.621Z,100730.65
2018-08-06T14:53:23.732Z,100729.75
2018-08-06T14:55:53.899Z,100728.59
2018-08-06T14:58:24.795Z,100717.78
2018-08-06T15:00:55.078Z,100726.55
2018-08-06T15:03:25.245Z,100718.09
2018-08-06T15:05:55.419Z,100715.10
2018-08-06T15:08:25.770Z,100717.09
2018-08-06T15:10:56.096Z,100719.41
2018-08-06T15:13:26.235Z,100714.67
2018-08-06T15:15:56.418Z,100715.91
2018-08-06T15:18:26.504Z,100714.12
2018-08-06T15:20:56.639Z,100713.16
2018-08-06T15:23:26.757Z,100705.13
2018-08-06T15:25:57.007Z,100703.72
2018-08-06T15:28:27.167Z,100699.56
2018-08-06T15:30:57.368Z,100696.16
2018-08-06T15:33:27.481Z,100694.42
2018-08-06T15:35:57.669Z,100690.02
2018-08-06T15:38:27.798Z,100685.30
2018-08-06T15:40:57.993Z,100684.05
2018-08-06T15:43:28.136Z,100685.09
2018-08-06T15:45:58.268Z,100686.78
2018-08-06T15:48:28.486Z,100680.92
2018-08-06T15:50:58.680Z,100678.30
2018-08-06T15:53:28.920Z,100673.73
2018-08-06T15:55:59.148Z,100664.27
2018-08-06T15:58:29.377Z,100669.59
2018-08-06T16:00:59.539Z,100666.17
2018-08-06T16:03:30.683Z,100665.71
2018-08-06T16:06:01.094Z,100662.61
2018-08-06T16:08:32.268Z,100658.22
2018-08-06T16:11:02.511Z,100662.64
2018-08-06T16:13:41.098Z,100660.31
2018-08-06T16:16:11.340Z,100656.52
2018-08-06T16:18:41.434Z,100655.38
2018-08-06T16:21:11.698Z,100646.48
2018-08-06T16:23:41.800Z,100647.41
2018-08-06T16:26:11.916Z,100637.31
2018-08-06T16:28:42.147Z,100636.02
2018-08-06T16:31:12.360Z,100638.19
2018-08-06T16:33:42.546Z,100634.81
2018-08-06T16:36:12.703Z,100637.33
2018-08-06T16:38:42.829Z,100633.44
2018-08-06T16:41:13.041Z,100637.65
2018-08-06T16:43:43.204Z,100633.77
2018-08-06T16:46:13.426Z,100626.56
2018-08-06T16:48:43.678Z,100626.75
2018-08-06T16:51:13.780Z,100626.34
2018-08-06T16:53:43.931Z,100622.52
2018-08-06T16:56:14.115Z,100623.61
2018-08-06T16:58:44.235Z,100624.31
2018-08-06T17:01:14.376Z,100617.52
2018-08-06T17:03:44.560Z,100613.19
2018-08-06T17:06:14.740Z,100619.10
2018-08-06T17:08:44.796Z,100616.01
2018-08-06T17:11:15.024Z,100613.87
2018-08-06T17:13:45.171Z,100617.14
2018-08-06T17:16:15.357Z,100612.50
2018-08-06T17:18:45.543Z,100616.31
2018-08-06T17:21:15.742Z,100615.61
2018-08-06T17:23:45.825Z,100612.41
2018-08-06T17:26:15.980Z,100615.56
2018-08-06T17:28:46.102Z,100615.12
2018-08-06T17:31:16.423Z,100610.70
2018-08-06T17:33:46.564Z,100615.41
2018-08-06T17:36:16.795Z,100618.12
2018-08-06T17:38:46.929Z,100609.89
2018-08-06T17:41:17.077Z,100610.66
2018-08-06T17:43:47.194Z,100612.73
2018-08-06T17:46:17.379Z,100609.80
2018-08-06T17:48:47.839Z,100611.39
2018-08-06T17:51:17.926Z,100612.86
2018-08-06T17:53:48.008Z,100611.69
2018-08-06T17:56:18.148Z,100617.36
2018-08-06T17:58:48.296Z,100610.33
2018-08-06T18:01:18.473Z,100607.09
2018-08-06T18:03:48.561Z,100604.45
2018-08-06T18:06:18.724Z,100605.06
2018-08-06T18:08:49.016Z,100607.07
2018-08-06T18:11:19.086Z,100611.41
2018-08-06T18:13:49.164Z,100609.59
2018-08-06T18:16:19.393Z,100609.24
2018-08-06T18:18:49.544Z,100609.39
2018-08-06T18:21:19.707Z,100611.47
2018-08-06T18:23:49.747Z,100611.27
2018-08-06T18:26:19.977Z,100606.29
2018-08-06T18:28:50.120Z,100606.77
2018-08-06T18:31:20.327Z,100608.08
2018-08-06T18:33:50.555Z,100609.02
2018-08-06T18:36:20.735Z,100611.30
2018-08-06T18:38:51.890Z,100608.67
2018-08-06T18:41:22.085Z,100620.30
2018-08-06T18:43:52.217Z,100615.64
2018-08-06T18:46:22.436Z,100613.23
2018-08-06T18:48:52.566Z,100618.77
2018-08-06T18:51:22.760Z,100614.88
2018-08-06T18:53:52.874Z,100616.80
2018-08-06T18:56:23.039Z,100619.23
2018-08-06T18:58:53.204Z,100612.72
2018-08-06T19:01:23.372Z,100618.64
2018-08-06T19:03:53.756Z,100617.77
2018-08-06T19:06:23.917Z,100616.94
2018-08-06T19:08:53.969Z,100619.48
2018-08-06T19:11:24.137Z,100618.74
2018-08-06T19:13:59.238Z,100627.86
2018-08-06T19:16:29.468Z,100625.86
2018-08-06T19:19:04.554Z,100630.95
2018-08-06T19:21:34.678Z,100633.88
2018-08-06T19:24:09.804Z,100631.88
2018-08-06T19:26:39.951Z,100639.39
2018-08-06T19:29:09.990Z,100640.30
2018-08-06T19:31:40.131Z,100639.50
2018-08-06T19:34:10.267Z,100642.43
2018-08-06T19:36:45.415Z,100637.84
2018-08-06T19:39:15.620Z,100645.12
2018-08-06T19:41:45.741Z,100641.79
2018-08-06T19:44:15.916Z,100643.83
2018-08-06T19:46:46.141Z,100645.94
2018-08-06T19:50:23.323Z,100639.70
2018-08-06T19:52:53.513Z,100643.23
2018-08-06T19:55:28.923Z,100639.50
2018-08-06T19:57:59.103Z,100642.84
2018-08-06T20:00:29.468Z,100647.27
2018-08-06T20:02:59.697Z,100643.59
2018-08-06T20:05:29.869Z,100639.86
2018-08-06T20:08:00.075Z,100640.02
2018-08-06T20:10:30.742Z,100650.67
2018-08-06T20:13:00.897Z,100641.25
2018-08-06T20:15:31.037Z,100648.36
2018-08-06T20:18:01.246Z,100649.20
2018-08-06T20:20:31.411Z,100651.55
2018-08-06T20:23:01.704Z,100644.78
2018-08-06T20:25:31.834Z,100641.24
2018-08-06T20:28:02.046Z,100640.56
2018-08-06T20:30:32.247Z,100639.56
2018-08-06T20:33:02.478Z,100638.19
2018-08-06T20:35:32.626Z,100637.27
2018-08-06T20:38:02.865Z,100638.11
2018-08-06T20:40:33.016Z,100646.06
2018-08-06T20:43:03.154Z,100646.78
2018-08-06T20:45:33.350Z,100644.59
2018-08-06T20:48:03.688Z,100640.89
2018-08-06T20:50:33.821Z,100648.16
2018-08-06T20:53:03.995Z,100641.75
2018-08-06T20:55:34.119Z,100647.86
2018-08-06T20:58:04.341Z,100645.33
2018-08-06T21:00:34.515Z,100651.76
2018-08-06T21:03:04.800Z,100644.52
2018-08-06T21:05:34.998Z,100649.90
2018-08-06T21:08:05.207Z,100643.96
2018-08-06T21:10:35.474Z,100649.34
2018-08-06T21:13:05.660Z,100648.02
2018-08-06T21:15:35.849Z,100647.33
2018-08-06T21:18:06.182Z,100649.01
2018-08-06T21:20:36.279Z,100646.61
2018-08-06T21:23:06.466Z,100648.64
2018-08-06T21:25:36.591Z,100646.58
2018-08-06T21:28:06.823Z,100646.63
2018-08-06T21:30:36.899Z,100648.59
2018-08-06T21:33:07.041Z,100650.98
2018-08-06T21:35:37.254Z,100644.78
2018-08-06T21:38:07.628Z,100646.63
2018-08-06T21:40:37.837Z,100643.58
2018-08-06T21:43:08.479Z,100642.54
2018-08-06T21:45:38.692Z,100648.08
2018-08-06T21:48:08.958Z,100645.45
2018-08-06T21:50:39.136Z,100645.86
2018-08-06T21:53:09.562Z,100641.45
2018-08-06T21:55:39.895Z,100645.30
2018-08-06T21:58:10.116Z,100641.44
2018-08-06T22:00:41.334Z,100640.33
2018-08-06T22:03:18.833Z,100644.79
2018-08-06T22:05:48.993Z,100637.80
2018-08-06T22:08:19.113Z,100633.52
2018-08-06T22:10:49.231Z,100635.78
2018-08-06T22:13:19.438Z,100636.80
2018-08-06T22:15:49.653Z,100636.48
2018-08-06T22:18:19.883Z,100638.02
2018-08-06T22:20:50.076Z,100634.70
2018-08-06T22:23:20.281Z,100635.25
2018-08-06T22:25:50.452Z,100638.68
2018-08-06T22:28:20.620Z,100629.14
2018-08-06T22:30:50.741Z,100632.91
2018-08-06T22:33:20.903Z,100629.25
2018-08-06T22:35:51.201Z,100629.64
2018-08-06T22:38:22.189Z,100631.09
2018-08-06T22:40:52.380Z,100629.47
2018-08-06T22:43:22.667Z,100625.67
2018-08-06T22:45:52.803Z,100629.91
2018-08-06T22:48:23.055Z,100628.91
2018-08-06T22:50:53.235Z,100633.70
2018-08-06T22:53:23.373Z,100634.00
2018-08-06T22:56:04.465Z,100628.66
2018-08-06T22:58:34.570Z,100631.68
2018-08-06T23:01:04.852Z,100627.88
2018-08-06T23:03:35.103Z,100628.45
2018-08-06T23:06:05.425Z,100618.94
2018-08-06T23:08:35.647Z,100622.77
2018-08-06T23:11:05.824Z,100620.62
2018-08-06T23:13:36.107Z,100619.98
2018-08-06T23:16:06.438Z,100615.91
2018-08-06T23:18:36.602Z,100610.17
2018-08-06T23:21:06.861Z,100611.73
2018-08-06T23:23:37.069Z,100603.64
2018-08-06T23:26:07.287Z,100605.55
2018-08-06T23:28:37.434Z,100606.69
2018-08-06T23:31:07.766Z,100603.29
2018-08-06T23:33:37.858Z,100600.97
2018-08-06T23:36:08.021Z,100594.69
2018-08-06T23:38:38.219Z,100598.40
2018-08-06T23:41:08.429Z,100589.86
2018-08-06T23:43:38.662Z,100596.97
2018-08-06T23:46:08.757Z,100590.14
2018-08-06T23:48:38.963Z,100586.11
2018-08-06T23:51:09.799Z,100585.77
2018-08-06T23:53:39.979Z,100583.35
2018-08-06T23:56:10.194Z,100574.95
2018-08-06T23:58:40.281Z,100573.61
